sensor_id;sensor_type;location;lat;lon;timestamp;P1;durP1;ratioP1;P2;durP2;ratioP2
71176;SDS011;58877;51.992;4.504;2023-04-06T00:02:23;17.76;;;17.49;;
71176;SDS011;58877;51.992;4.504;2023-04-06T00:04:48;16.62;;;16.40;;
71176;SDS011;58877;51.992;4.504;2023-04-06T00:07:14;16.85;;;16.69;;
71176;SDS011;58877;51.992;4.504;2023-04-06T00:09:40;15.94;;;15.66;;
71176;SDS011;58877;51.992;4.504;2023-04-06T00:12:05;15.66;;;15.42;;
71176;SDS011;58877;51.992;4.504;2023-04-06T00:14:31;15.94;;;15.82;;
71176;SDS011;58877;51.992;4.504;2023-04-06T00:16:57;15.18;;;15.01;;
71176;SDS011;58877;51.992;4.504;2023-04-06T00:19:23;15.71;;;15.51;;
71176;SDS011;58877;51.992;4.504;2023-04-06T00:21:48;15.01;;;14.89;;
71176;SDS011;58877;51.992;4.504;2023-04-06T00:24:14;15.46;;;15.33;;
71176;SDS011;58877;51.992;4.504;2023-04-06T00:26:45;15.50;;;15.31;;
71176;SDS011;58877;51.992;4.504;2023-04-06T00:29:11;14.44;;;14.33;;
71176;SDS011;58877;51.992;4.504;2023-04-06T00:31:39;14.46;;;14.33;;
71176;SDS011;58877;51.992;4.504;2023-04-06T00:34:05;14.55;;;14.44;;
71176;SDS011;58877;51.992;4.504;2023-04-06T00:36:34;14.14;;;14.00;;
71176;SDS011;58877;51.992;4.504;2023-04-06T00:39:02;14.27;;;14.17;;
71176;SDS011;58877;51.992;4.504;2023-04-06T00:41:28;14.21;;;14.14;;
71176;SDS011;58877;51.992;4.504;2023-04-06T00:43:53;14.53;;;14.39;;
71176;SDS011;58877;51.992;4.504;2023-04-06T00:46:19;14.71;;;14.43;;
71176;SDS011;58877;51.992;4.504;2023-04-06T00:48:45;14.53;;;14.35;;
71176;SDS011;58877;51.992;4.504;2023-04-06T00:51:11;14.02;;;13.87;;
71176;SDS011;58877;51.992;4.504;2023-04-06T00:53:36;13.46;;;13.30;;
71176;SDS011;58877;51.992;4.504;2023-04-06T00:56:02;13.78;;;13.59;;
71176;SDS011;58877;51.992;4.504;2023-04-06T00:58:27;13.50;;;13.37;;
71176;SDS011;58877;51.992;4.504;2023-04-06T01:00:53;13.81;;;13.71;;
71176;SDS011;58877;51.992;4.504;2023-04-06T01:03:19;13.74;;;13.51;;
71176;SDS011;58877;51.992;4.504;2023-04-06T01:05:44;13.17;;;13.06;;
71176;SDS011;58877;51.992;4.504;2023-04-06T01:08:10;14.12;;;13.82;;
71176;SDS011;58877;51.992;4.504;2023-04-06T01:10:36;13.75;;;13.50;;
71176;SDS011;58877;51.992;4.504;2023-04-06T01:13:01;13.67;;;13.52;;
71176;SDS011;58877;51.992;4.504;2023-04-06T01:15:27;13.81;;;13.72;;
71176;SDS011;58877;51.992;4.504;2023-04-06T01:17:54;12.94;;;12.80;;
71176;SDS011;58877;51.992;4.504;2023-04-06T01:20:20;12.77;;;12.70;;
71176;SDS011;58877;51.992;4.504;2023-04-06T01:22:45;12.99;;;12.89;;
71176;SDS011;58877;51.992;4.504;2023-04-06T01:25:13;13.39;;;13.28;;
71176;SDS011;58877;51.992;4.504;2023-04-06T01:27:39;13.32;;;13.25;;
71176;SDS011;58877;51.992;4.504;2023-04-06T01:30:04;13.12;;;13.00;;
71176;SDS011;58877;51.992;4.504;2023-04-06T01:32:31;12.97;;;12.84;;
71176;SDS011;58877;51.992;4.504;2023-04-06T01:34:56;12.51;;;12.46;;
71176;SDS011;58877;51.992;4.504;2023-04-06T01:37:25;12.95;;;12.63;;
71176;SDS011;58877;51.992;4.504;2023-04-06T01:39:51;13.11;;;12.90;;
71176;SDS011;58877;51.992;4.504;2023-04-06T01:42:16;13.00;;;12.88;;
71176;SDS011;58877;51.992;4.504;2023-04-06T01:44:42;13.35;;;13.29;;
71176;SDS011;58877;51.992;4.504;2023-04-06T01:47:07;14.16;;;14.04;;
71176;SDS011;58877;51.992;4.504;2023-04-06T01:49:33;13.77;;;13.56;;
71176;SDS011;58877;51.992;4.504;2023-04-06T01:51:59;12.88;;;12.78;;
71176;SDS011;58877;51.992;4.504;2023-04-06T01:54:24;12.82;;;12.72;;
71176;SDS011;58877;51.992;4.504;2023-04-06T01:56:50;13.39;;;13.23;;
71176;SDS011;58877;51.992;4.504;2023-04-06T01:59:17;13.23;;;13.15;;
71176;SDS011;58877;51.992;4.504;2023-04-06T02:01:45;14.26;;;14.07;;
71176;SDS011;58877;51.992;4.504;2023-04-06T02:04:11;13.85;;;13.71;;
71176;SDS011;58877;51.992;4.504;2023-04-06T02:06:38;13.41;;;13.35;;
71176;SDS011;58877;51.992;4.504;2023-04-06T02:09:04;13.84;;;13.62;;
71176;SDS011;58877;51.992;4.504;2023-04-06T02:11:29;13.69;;;13.49;;
71176;SDS011;58877;51.992;4.504;2023-04-06T02:13:55;13.58;;;13.43;;
71176;SDS011;58877;51.992;4.504;2023-04-06T02:16:21;13.72;;;13.56;;
71176;SDS011;58877;51.992;4.504;2023-04-06T02:18:47;13.72;;;13.67;;
71176;SDS011;58877;51.992;4.504;2023-04-06T02:21:14;13.49;;;13.35;;
71176;SDS011;58877;51.992;4.504;2023-04-06T02:23:45;14.23;;;14.06;;
71176;SDS011;58877;51.992;4.504;2023-04-06T02:26:11;14.07;;;13.98;;
71176;SDS011;58877;51.992;4.504;2023-04-06T02:28:36;14.17;;;13.94;;
71176;SDS011;58877;51.992;4.504;2023-04-06T02:31:02;13.90;;;13.65;;
71176;SDS011;58877;51.992;4.504;2023-04-06T02:33:27;14.55;;;14.23;;
71176;SDS011;58877;51.992;4.504;2023-04-06T02:35:56;14.72;;;14.44;;
71176;SDS011;58877;51.992;4.504;2023-04-06T02:38:21;14.62;;;14.30;;
71176;SDS011;58877;51.992;4.504;2023-04-06T02:40:47;14.91;;;14.69;;
71176;SDS011;58877;51.992;4.504;2023-04-06T02:43:12;14.22;;;14.10;;
71176;SDS011;58877;51.992;4.504;2023-04-06T02:45:38;15.00;;;14.79;;
71176;SDS011;58877;51.992;4.504;2023-04-06T02:48:06;14.77;;;14.55;;
71176;SDS011;58877;51.992;4.504;2023-04-06T02:50:32;14.66;;;14.48;;
71176;SDS011;58877;51.992;4.504;2023-04-06T02:53:00;14.42;;;14.21;;
71176;SDS011;58877;51.992;4.504;2023-04-06T02:55:26;15.31;;;15.07;;
71176;SDS011;58877;51.992;4.504;2023-04-06T02:57:57;15.19;;;14.91;;
71176;SDS011;58877;51.992;4.504;2023-04-06T03:00:26;14.90;;;14.77;;
71176;SDS011;58877;51.992;4.504;2023-04-06T03:02:51;14.89;;;14.68;;
71176;SDS011;58877;51.992;4.504;2023-04-06T03:05:20;14.95;;;14.54;;
71176;SDS011;58877;51.992;4.504;2023-04-06T03:07:48;15.12;;;14.87;;
71176;SDS011;58877;51.992;4.504;2023-04-06T03:10:16;15.24;;;15.04;;
71176;SDS011;58877;51.992;4.504;2023-04-06T03:12:42;15.65;;;15.29;;
71176;SDS011;58877;51.992;4.504;2023-04-06T03:15:08;14.94;;;14.77;;
71176;SDS011;58877;51.992;4.504;2023-04-06T03:17:34;14.75;;;14.49;;
71176;SDS011;58877;51.992;4.504;2023-04-06T03:20:00;16.13;;;15.78;;
71176;SDS011;58877;51.992;4.504;2023-04-06T03:22:25;15.40;;;15.11;;
71176;SDS011;58877;51.992;4.504;2023-04-06T03:24:51;14.46;;;14.28;;
71176;SDS011;58877;51.992;4.504;2023-04-06T03:27:19;15.22;;;15.02;;
71176;SDS011;58877;51.992;4.504;2023-04-06T03:29:45;15.14;;;14.92;;
71176;SDS011;58877;51.992;4.504;2023-04-06T03:32:13;15.19;;;14.97;;
71176;SDS011;58877;51.992;4.504;2023-04-06T03:34:40;15.81;;;15.55;;
71176;SDS011;58877;51.992;4.504;2023-04-06T03:37:06;15.22;;;15.03;;
71176;SDS011;58877;51.992;4.504;2023-04-06T03:39:31;15.04;;;14.91;;
71176;SDS011;58877;51.992;4.504;2023-04-06T03:41:57;15.96;;;15.70;;
71176;SDS011;58877;51.992;4.504;2023-04-06T03:44:22;15.35;;;15.05;;
71176;SDS011;58877;51.992;4.504;2023-04-06T03:46:48;15.64;;;15.44;;
71176;SDS011;58877;51.992;4.504;2023-04-06T03:49:13;15.87;;;15.74;;
71176;SDS011;58877;51.992;4.504;2023-04-06T03:51:39;15.15;;;14.93;;
71176;SDS011;58877;51.992;4.504;2023-04-06T03:54:04;15.59;;;15.36;;
71176;SDS011;58877;51.992;4.504;2023-04-06T03:56:30;15.83;;;15.50;;
71176;SDS011;58877;51.992;4.504;2023-04-06T03:58:55;16.57;;;16.22;;
71176;SDS011;58877;51.992;4.504;2023-04-06T04:01:21;16.51;;;16.21;;
71176;SDS011;58877;51.992;4.504;2023-04-06T04:03:47;16.26;;;16.01;;
71176;SDS011;58877;51.992;4.504;2023-04-06T04:06:15;16.33;;;16.21;;
71176;SDS011;58877;51.992;4.504;2023-04-06T04:08:44;15.68;;;15.52;;
71176;SDS011;58877;51.992;4.504;2023-04-06T04:11:10;16.17;;;15.94;;
71176;SDS011;58877;51.992;4.504;2023-04-06T04:13:35;15.72;;;15.45;;
71176;SDS011;58877;51.992;4.504;2023-04-06T04:16:04;16.38;;;15.86;;
71176;SDS011;58877;51.992;4.504;2023-04-06T04:18:29;17.52;;;17.19;;
71176;SDS011;58877;51.992;4.504;2023-04-06T04:20:58;16.81;;;16.62;;
71176;SDS011;58877;51.992;4.504;2023-04-06T04:23:23;17.13;;;16.92;;
71176;SDS011;58877;51.992;4.504;2023-04-06T04:25:51;17.75;;;17.30;;
71176;SDS011;58877;51.992;4.504;2023-04-06T04:28:17;17.80;;;17.39;;
71176;SDS011;58877;51.992;4.504;2023-04-06T04:30:43;17.50;;;17.37;;
71176;SDS011;58877;51.992;4.504;2023-04-06T04:33:11;18.15;;;17.94;;
71176;SDS011;58877;51.992;4.504;2023-04-06T04:35:37;17.59;;;17.24;;
71176;SDS011;58877;51.992;4.504;2023-04-06T04:38:02;17.38;;;17.09;;
71176;SDS011;58877;51.992;4.504;2023-04-06T04:40:28;18.22;;;17.81;;
71176;SDS011;58877;51.992;4.504;2023-04-06T04:42:53;17.95;;;17.46;;
71176;SDS011;58877;51.992;4.504;2023-04-06T04:45:19;18.23;;;17.87;;
71176;SDS011;58877;51.992;4.504;2023-04-06T04:47:47;17.95;;;17.72;;
71176;SDS011;58877;51.992;4.504;2023-04-06T04:50:16;18.05;;;17.59;;
71176;SDS011;58877;51.992;4.504;2023-04-06T04:52:41;18.92;;;18.51;;
71176;SDS011;58877;51.992;4.504;2023-04-06T04:55:07;18.82;;;18.52;;
71176;SDS011;58877;51.992;4.504;2023-04-06T04:57:33;19.10;;;18.63;;
71176;SDS011;58877;51.992;4.504;2023-04-06T04:59:58;19.14;;;18.78;;
71176;SDS011;58877;51.992;4.504;2023-04-06T05:02:24;20.50;;;20.14;;
71176;SDS011;58877;51.992;4.504;2023-04-06T05:04:49;19.93;;;19.60;;
71176;SDS011;58877;51.992;4.504;2023-04-06T05:07:15;19.97;;;19.58;;
71176;SDS011;58877;51.992;4.504;2023-04-06T05:09:43;20.49;;;20.06;;
71176;SDS011;58877;51.992;4.504;2023-04-06T05:12:09;20.29;;;19.95;;
71176;SDS011;58877;51.992;4.504;2023-04-06T05:14:35;20.59;;;20.32;;
71176;SDS011;58877;51.992;4.504;2023-04-06T05:17:01;19.96;;;19.73;;
71176;SDS011;58877;51.992;4.504;2023-04-06T05:19:27;21.09;;;20.94;;
71176;SDS011;58877;51.992;4.504;2023-04-06T05:21:53;21.10;;;20.82;;
71176;SDS011;58877;51.992;4.504;2023-04-06T05:24:21;21.09;;;20.68;;
71176;SDS011;58877;51.992;4.504;2023-04-06T05:26:50;21.07;;;20.70;;
71176;SDS011;58877;51.992;4.504;2023-04-06T05:29:19;22.18;;;21.74;;
71176;SDS011;58877;51.992;4.504;2023-04-06T05:31:46;22.00;;;21.45;;
71176;SDS011;58877;51.992;4.504;2023-04-06T05:34:11;22.75;;;22.32;;
71176;SDS011;58877;51.992;4.504;2023-04-06T05:36:38;21.88;;;21.50;;
71176;SDS011;58877;51.992;4.504;2023-04-06T05:39:08;22.13;;;21.73;;
71176;SDS011;58877;51.992;4.504;2023-04-06T05:41:33;23.02;;;22.72;;
71176;SDS011;58877;51.992;4.504;2023-04-06T05:43:59;23.10;;;22.62;;
71176;SDS011;58877;51.992;4.504;2023-04-06T05:46:28;24.03;;;23.65;;
71176;SDS011;58877;51.992;4.504;2023-04-06T05:48:53;24.53;;;24.05;;
71176;SDS011;58877;51.992;4.504;2023-04-06T05:51:30;26.21;;;25.70;;
71176;SDS011;58877;51.992;4.504;2023-04-06T05:53:56;25.70;;;24.98;;
71176;SDS011;58877;51.992;4.504;2023-04-06T05:56:23;25.43;;;25.02;;
71176;SDS011;58877;51.992;4.504;2023-04-06T05:58:48;26.13;;;25.60;;
71176;SDS011;58877;51.992;4.504;2023-04-06T06:01:14;25.52;;;25.00;;
71176;SDS011;58877;51.992;4.504;2023-04-06T06:03:42;27.68;;;27.07;;
71176;SDS011;58877;51.992;4.504;2023-04-06T06:06:08;26.56;;;26.05;;
71176;SDS011;58877;51.992;4.504;2023-04-06T06:08:34;25.40;;;24.88;;
71176;SDS011;58877;51.992;4.504;2023-04-06T06:11:00;25.11;;;24.62;;
71176;SDS011;58877;51.992;4.504;2023-04-06T06:13:27;25.91;;;25.46;;
71176;SDS011;58877;51.992;4.504;2023-04-06T06:15:55;25.92;;;25.42;;
71176;SDS011;58877;51.992;4.504;2023-04-06T06:18:21;25.71;;;25.12;;
71176;SDS011;58877;51.992;4.504;2023-04-06T06:20:47;26.12;;;25.73;;
71176;SDS011;58877;51.992;4.504;2023-04-06T06:23:15;26.08;;;25.45;;
71176;SDS011;58877;51.992;4.504;2023-04-06T06:25:41;25.20;;;24.82;;
71176;SDS011;58877;51.992;4.504;2023-04-06T06:28:06;25.27;;;24.83;;
71176;SDS011;58877;51.992;4.504;2023-04-06T06:30:32;23.87;;;23.58;;
71176;SDS011;58877;51.992;4.504;2023-04-06T06:32:58;24.13;;;23.89;;
71176;SDS011;58877;51.992;4.504;2023-04-06T06:35:23;24.06;;;23.53;;
71176;SDS011;58877;51.992;4.504;2023-04-06T06:37:49;24.46;;;24.01;;
71176;SDS011;58877;51.992;4.504;2023-04-06T06:40:18;24.13;;;23.76;;
71176;SDS011;58877;51.992;4.504;2023-04-06T06:42:45;23.11;;;22.86;;
71176;SDS011;58877;51.992;4.504;2023-04-06T06:45:10;23.16;;;22.85;;
71176;SDS011;58877;51.992;4.504;2023-04-06T06:47:38;23.94;;;23.53;;
71176;SDS011;58877;51.992;4.504;2023-04-06T06:50:07;23.60;;;23.07;;
71176;SDS011;58877;51.992;4.504;2023-04-06T06:52:32;22.03;;;21.79;;
71176;SDS011;58877;51.992;4.504;2023-04-06T06:55:01;22.87;;;22.58;;
71176;SDS011;58877;51.992;4.504;2023-04-06T06:57:33;23.16;;;22.79;;
71176;SDS011;58877;51.992;4.504;2023-04-06T06:59:58;22.50;;;22.20;;
71176;SDS011;58877;51.992;4.504;2023-04-06T07:02:25;23.97;;;23.48;;
71176;SDS011;58877;51.992;4.504;2023-04-06T07:04:51;22.50;;;22.15;;
71176;SDS011;58877;51.992;4.504;2023-04-06T07:07:20;22.62;;;22.33;;
71176;SDS011;58877;51.992;4.504;2023-04-06T07:09:48;23.08;;;22.69;;
71176;SDS011;58877;51.992;4.504;2023-04-06T07:12:14;23.70;;;23.24;;
71176;SDS011;58877;51.992;4.504;2023-04-06T07:14:41;23.12;;;22.80;;
71176;SDS011;58877;51.992;4.504;2023-04-06T07:17:07;22.67;;;22.39;;
71176;SDS011;58877;51.992;4.504;2023-04-06T07:19:34;23.89;;;23.47;;
71176;SDS011;58877;51.992;4.504;2023-04-06T07:22:00;23.13;;;22.85;;
71176;SDS011;58877;51.992;4.504;2023-04-06T07:24:29;22.35;;;22.34;;
71176;SDS011;58877;51.992;4.504;2023-04-06T07:26:55;22.45;;;22.39;;
71176;SDS011;58877;51.992;4.504;2023-04-06T07:29:21;20.42;;;20.25;;
71176;SDS011;58877;51.992;4.504;2023-04-06T07:31:48;20.62;;;20.47;;
71176;SDS011;58877;51.992;4.504;2023-04-06T07:34:14;20.55;;;20.50;;
71176;SDS011;58877;51.992;4.504;2023-04-06T07:36:40;19.29;;;19.19;;
71176;SDS011;58877;51.992;4.504;2023-04-06T07:39:12;20.11;;;19.86;;
71176;SDS011;58877;51.992;4.504;2023-04-06T07:41:39;18.89;;;18.67;;
71176;SDS011;58877;51.992;4.504;2023-04-06T07:44:04;19.53;;;19.33;;
71176;SDS011;58877;51.992;4.504;2023-04-06T07:46:30;18.68;;;18.48;;
71176;SDS011;58877;51.992;4.504;2023-04-06T07:48:57;18.21;;;18.13;;
71176;SDS011;58877;51.992;4.504;2023-04-06T07:51:32;18.12;;;17.95;;
71176;SDS011;58877;51.992;4.504;2023-04-06T07:53:58;19.26;;;19.05;;
71176;SDS011;58877;51.992;4.504;2023-04-06T07:56:23;19.70;;;19.50;;
71176;SDS011;58877;51.992;4.504;2023-04-06T07:58:50;20.43;;;20.26;;
71176;SDS011;58877;51.992;4.504;2023-04-06T08:01:16;20.70;;;20.55;;
71176;SDS011;58877;51.992;4.504;2023-04-06T08:03:42;20.43;;;20.24;;
71176;SDS011;58877;51.992;4.504;2023-04-06T08:06:08;21.92;;;21.74;;
71176;SDS011;58877;51.992;4.504;2023-04-06T08:08:38;22.11;;;21.87;;
71176;SDS011;58877;51.992;4.504;2023-04-06T08:11:04;22.96;;;22.82;;
71176;SDS011;58877;51.992;4.504;2023-04-06T08:13:33;22.78;;;22.44;;
71176;SDS011;58877;51.992;4.504;2023-04-06T08:16:12;23.23;;;23.06;;
71176;SDS011;58877;51.992;4.504;2023-04-06T08:18:44;24.07;;;23.82;;
71176;SDS011;58877;51.992;4.504;2023-04-06T08:21:09;23.68;;;23.52;;
71176;SDS011;58877;51.992;4.504;2023-04-06T08:23:38;22.63;;;22.40;;
71176;SDS011;58877;51.992;4.504;2023-04-06T08:26:07;22.10;;;21.91;;
71176;SDS011;58877;51.992;4.504;2023-04-06T08:28:35;22.49;;;22.27;;
71176;SDS011;58877;51.992;4.504;2023-04-06T08:31:07;23.17;;;23.01;;
71176;SDS011;58877;51.992;4.504;2023-04-06T08:33:33;21.75;;;21.56;;
71176;SDS011;58877;51.992;4.504;2023-04-06T08:36:11;21.73;;;21.63;;
71176;SDS011;58877;51.992;4.504;2023-04-06T08:38:38;22.31;;;22.16;;
71176;SDS011;58877;51.992;4.504;2023-04-06T08:41:11;22.60;;;22.23;;
71176;SDS011;58877;51.992;4.504;2023-04-06T08:46:17;20.65;;;20.48;;
71176;SDS011;58877;51.992;4.504;2023-04-06T08:48:43;20.71;;;20.44;;
71176;SDS011;58877;51.992;4.504;2023-04-06T08:51:16;20.36;;;20.24;;
71176;SDS011;58877;51.992;4.504;2023-04-06T08:53:46;21.06;;;20.83;;
71176;SDS011;58877;51.992;4.504;2023-04-06T08:56:13;19.40;;;19.38;;
71176;SDS011;58877;51.992;4.504;2023-04-06T08:58:41;18.52;;;18.29;;
71176;SDS011;58877;51.992;4.504;2023-04-06T09:01:07;19.34;;;19.19;;
71176;SDS011;58877;51.992;4.504;2023-04-06T09:03:37;18.93;;;18.78;;
71176;SDS011;58877;51.992;4.504;2023-04-06T09:06:06;17.72;;;17.45;;
71176;SDS011;58877;51.992;4.504;2023-04-06T09:08:33;17.40;;;17.09;;
71176;SDS011;58877;51.992;4.504;2023-04-06T09:11:02;14.48;;;14.23;;
71176;SDS011;58877;51.992;4.504;2023-04-06T09:13:29;13.19;;;13.15;;
71176;SDS011;58877;51.992;4.504;2023-04-06T09:16:02;12.71;;;12.59;;
71176;SDS011;58877;51.992;4.504;2023-04-06T09:18:30;12.56;;;12.44;;
71176;SDS011;58877;51.992;4.504;2023-04-06T09:20:57;12.07;;;12.05;;
71176;SDS011;58877;51.992;4.504;2023-04-06T09:23:27;12.29;;;12.22;;
71176;SDS011;58877;51.992;4.504;2023-04-06T09:26:04;11.66;;;11.59;;
71176;SDS011;58877;51.992;4.504;2023-04-06T09:28:40;11.09;;;11.01;;
71176;SDS011;58877;51.992;4.504;2023-04-06T09:31:21;11.37;;;11.23;;
71176;SDS011;58877;51.992;4.504;2023-04-06T09:33:48;11.03;;;10.93;;
71176;SDS011;58877;51.992;4.504;2023-04-06T09:36:15;10.98;;;10.87;;
71176;SDS011;58877;51.992;4.504;2023-04-06T09:39:00;10.30;;;10.25;;
71176;SDS011;58877;51.992;4.504;2023-04-06T09:41:28;10.53;;;10.48;;
71176;SDS011;58877;51.992;4.504;2023-04-06T09:46:31;11.08;;;11.07;;
71176;SDS011;58877;51.992;4.504;2023-04-06T09:49:01;11.45;;;11.33;;
71176;SDS011;58877;51.992;4.504;2023-04-06T09:51:30;11.07;;;10.99;;
71176;SDS011;58877;51.992;4.504;2023-04-06T09:54:03;10.91;;;10.80;;
71176;SDS011;58877;51.992;4.504;2023-04-06T09:56:31;10.58;;;10.51;;
71176;SDS011;58877;51.992;4.504;2023-04-06T09:59:05;10.88;;;10.73;;
71176;SDS011;58877;51.992;4.504;2023-04-06T10:01:38;9.92;;;9.86;;
71176;SDS011;58877;51.992;4.504;2023-04-06T10:06:48;9.95;;;9.93;;
71176;SDS011;58877;51.992;4.504;2023-04-06T10:09:17;9.61;;;9.59;;
71176;SDS011;58877;51.992;4.504;2023-04-06T10:11:49;9.21;;;9.10;;
71176;SDS011;58877;51.992;4.504;2023-04-06T10:14:15;10.24;;;10.19;;
71176;SDS011;58877;51.992;4.504;2023-04-06T10:16:42;9.84;;;9.83;;
71176;SDS011;58877;51.992;4.504;2023-04-06T10:19:13;9.20;;;9.19;;
71176;SDS011;58877;51.992;4.504;2023-04-06T10:21:46;9.86;;;9.84;;
71176;SDS011;58877;51.992;4.504;2023-04-06T10:24:21;9.90;;;9.90;;
71176;SDS011;58877;51.992;4.504;2023-04-06T10:26:57;9.93;;;9.89;;
71176;SDS011;58877;51.992;4.504;2023-04-06T10:29:41;9.65;;;9.59;;
71176;SDS011;58877;51.992;4.504;2023-04-06T10:32:13;9.59;;;9.55;;
71176;SDS011;58877;51.992;4.504;2023-04-06T10:34:39;9.67;;;9.65;;
71176;SDS011;58877;51.992;4.504;2023-04-06T10:37:12;9.97;;;9.89;;
71176;SDS011;58877;51.992;4.504;2023-04-06T10:39:49;10.50;;;10.33;;
71176;SDS011;58877;51.992;4.504;2023-04-06T10:42:23;10.78;;;10.67;;
71176;SDS011;58877;51.992;4.504;2023-04-06T10:44:50;10.30;;;10.21;;
71176;SDS011;58877;51.992;4.504;2023-04-06T10:47:17;10.07;;;10.03;;
71176;SDS011;58877;51.992;4.504;2023-04-06T10:49:43;9.83;;;9.76;;
71176;SDS011;58877;51.992;4.504;2023-04-06T10:52:09;9.86;;;9.83;;
71176;SDS011;58877;51.992;4.504;2023-04-06T10:54:41;10.09;;;10.09;;
71176;SDS011;58877;51.992;4.504;2023-04-06T10:57:12;10.09;;;10.09;;
71176;SDS011;58877;51.992;4.504;2023-04-06T10:59:53;10.53;;;10.49;;
71176;SDS011;58877;51.992;4.504;2023-04-06T11:02:19;9.84;;;9.80;;
71176;SDS011;58877;51.992;4.504;2023-04-06T11:05:00;9.70;;;9.66;;
71176;SDS011;58877;51.992;4.504;2023-04-06T11:07:26;9.17;;;9.15;;
71176;SDS011;58877;51.992;4.504;2023-04-06T11:09:57;9.51;;;9.47;;
71176;SDS011;58877;51.992;4.504;2023-04-06T11:12:23;9.55;;;9.55;;
71176;SDS011;58877;51.992;4.504;2023-04-06T11:14:54;8.96;;;8.96;;
71176;SDS011;58877;51.992;4.504;2023-04-06T11:17:34;9.03;;;9.03;;
71176;SDS011;58877;51.992;4.504;2023-04-06T11:20:02;8.58;;;8.58;;
71176;SDS011;58877;51.992;4.504;2023-04-06T11:22:49;9.03;;;9.03;;
71176;SDS011;58877;51.992;4.504;2023-04-06T11:25:33;8.61;;;8.61;;
71176;SDS011;58877;51.992;4.504;2023-04-06T11:27:59;8.97;;;8.96;;
71176;SDS011;58877;51.992;4.504;2023-04-06T11:30:25;8.95;;;8.95;;
71176;SDS011;58877;51.992;4.504;2023-04-06T11:32:52;8.80;;;8.80;;
71176;SDS011;58877;51.992;4.504;2023-04-06T11:35:28;8.96;;;8.96;;
71176;SDS011;58877;51.992;4.504;2023-04-06T11:37:57;9.26;;;9.26;;
71176;SDS011;58877;51.992;4.504;2023-04-06T11:40:23;8.59;;;8.59;;
71176;SDS011;58877;51.992;4.504;2023-04-06T11:42:55;8.84;;;8.84;;
71176;SDS011;58877;51.992;4.504;2023-04-06T11:45:22;9.16;;;9.16;;
71176;SDS011;58877;51.992;4.504;2023-04-06T11:47:58;9.03;;;9.02;;
71176;SDS011;58877;51.992;4.504;2023-04-06T11:50:32;8.76;;;8.71;;
71176;SDS011;58877;51.992;4.504;2023-04-06T11:53:53;7.88;;;7.87;;
71176;SDS011;58877;51.992;4.504;2023-04-06T11:56:25;8.16;;;8.16;;
71176;SDS011;58877;51.992;4.504;2023-04-06T11:58:55;7.68;;;7.68;;
71176;SDS011;58877;51.992;4.504;2023-04-06T12:01:25;8.51;;;8.50;;
71176;SDS011;58877;51.992;4.504;2023-04-06T12:03:53;8.27;;;8.27;;
71176;SDS011;58877;51.992;4.504;2023-04-06T12:06:19;7.95;;;7.95;;
71176;SDS011;58877;51.992;4.504;2023-04-06T12:08:45;7.94;;;7.94;;
71176;SDS011;58877;51.992;4.504;2023-04-06T12:11:11;7.78;;;7.78;;
71176;SDS011;58877;51.992;4.504;2023-04-06T12:13:37;7.66;;;7.66;;
71176;SDS011;58877;51.992;4.504;2023-04-06T12:16:03;8.27;;;8.27;;
71176;SDS011;58877;51.992;4.504;2023-04-06T12:18:29;8.21;;;8.21;;
71176;SDS011;58877;51.992;4.504;2023-04-06T12:20:55;7.57;;;7.57;;
71176;SDS011;58877;51.992;4.504;2023-04-06T12:23:21;7.25;;;7.24;;
71176;SDS011;58877;51.992;4.504;2023-04-06T12:25:47;7.55;;;7.55;;
71176;SDS011;58877;51.992;4.504;2023-04-06T12:28:20;7.88;;;7.87;;
71176;SDS011;58877;51.992;4.504;2023-04-06T12:30:48;7.50;;;7.50;;
71176;SDS011;58877;51.992;4.504;2023-04-06T12:33:14;7.79;;;7.78;;
71176;SDS011;58877;51.992;4.504;2023-04-06T12:35:39;7.57;;;7.56;;
71176;SDS011;58877;51.992;4.504;2023-04-06T12:38:05;7.29;;;7.25;;
71176;SDS011;58877;51.992;4.504;2023-04-06T12:40:31;7.06;;;7.06;;
71176;SDS011;58877;51.992;4.504;2023-04-06T12:43:05;7.18;;;7.18;;
71176;SDS011;58877;51.992;4.504;2023-04-06T12:45:31;7.18;;;7.16;;
71176;SDS011;58877;51.992;4.504;2023-04-06T12:47:57;7.09;;;7.03;;
71176;SDS011;58877;51.992;4.504;2023-04-06T12:50:24;7.40;;;7.39;;
71176;SDS011;58877;51.992;4.504;2023-04-06T12:52:50;7.32;;;7.32;;
71176;SDS011;58877;51.992;4.504;2023-04-06T12:55:15;7.46;;;7.46;;
71176;SDS011;58877;51.992;4.504;2023-04-06T12:57:42;7.13;;;7.13;;
71176;SDS011;58877;51.992;4.504;2023-04-06T13:00:08;7.21;;;7.21;;
71176;SDS011;58877;51.992;4.504;2023-04-06T13:02:33;6.88;;;6.88;;
71176;SDS011;58877;51.992;4.504;2023-04-06T13:04:59;6.63;;;6.61;;
71176;SDS011;58877;51.992;4.504;2023-04-06T13:07:25;7.36;;;7.25;;
71176;SDS011;58877;51.992;4.504;2023-04-06T13:09:51;6.65;;;6.65;;
71176;SDS011;58877;51.992;4.504;2023-04-06T13:12:17;6.96;;;6.92;;
71176;SDS011;58877;51.992;4.504;2023-04-06T13:14:43;6.17;;;6.15;;
71176;SDS011;58877;51.992;4.504;2023-04-06T13:17:09;6.63;;;6.63;;
71176;SDS011;58877;51.992;4.504;2023-04-06T13:19:35;6.09;;;6.09;;
71176;SDS011;58877;51.992;4.504;2023-04-06T13:22:01;6.00;;;6.00;;
71176;SDS011;58877;51.992;4.504;2023-04-06T13:24:27;6.12;;;6.12;;
71176;SDS011;58877;51.992;4.504;2023-04-06T13:26:53;6.68;;;6.68;;
71176;SDS011;58877;51.992;4.504;2023-04-06T13:29:19;6.22;;;6.22;;
71176;SDS011;58877;51.992;4.504;2023-04-06T13:31:45;6.31;;;6.31;;
71176;SDS011;58877;51.992;4.504;2023-04-06T13:34:11;5.91;;;5.85;;
71176;SDS011;58877;51.992;4.504;2023-04-06T13:36:36;5.91;;;5.85;;
71176;SDS011;58877;51.992;4.504;2023-04-06T13:39:03;6.65;;;6.53;;
71176;SDS011;58877;51.992;4.504;2023-04-06T13:41:29;6.76;;;6.75;;
71176;SDS011;58877;51.992;4.504;2023-04-06T13:43:55;7.30;;;7.30;;
71176;SDS011;58877;51.992;4.504;2023-04-06T13:46:23;6.92;;;6.92;;
71176;SDS011;58877;51.992;4.504;2023-04-06T13:48:49;6.84;;;6.83;;
71176;SDS011;58877;51.992;4.504;2023-04-06T13:51:15;6.83;;;6.81;;
71176;SDS011;58877;51.992;4.504;2023-04-06T13:53:41;7.47;;;7.47;;
71176;SDS011;58877;51.992;4.504;2023-04-06T13:56:07;7.35;;;7.32;;
71176;SDS011;58877;51.992;4.504;2023-04-06T13:58:33;7.96;;;7.92;;
71176;SDS011;58877;51.992;4.504;2023-04-06T14:01:06;7.11;;;7.11;;
71176;SDS011;58877;51.992;4.504;2023-04-06T14:03:34;6.47;;;6.47;;
71176;SDS011;58877;51.992;4.504;2023-04-06T14:06:01;6.98;;;6.96;;
71176;SDS011;58877;51.992;4.504;2023-04-06T14:08:34;7.03;;;7.03;;
71176;SDS011;58877;51.992;4.504;2023-04-06T14:11:00;6.44;;;6.44;;
71176;SDS011;58877;51.992;4.504;2023-04-06T14:13:26;7.34;;;7.34;;
71176;SDS011;58877;51.992;4.504;2023-04-06T14:15:53;6.76;;;6.74;;
71176;SDS011;58877;51.992;4.504;2023-04-06T14:18:20;6.68;;;6.68;;
71176;SDS011;58877;51.992;4.504;2023-04-06T14:20:53;6.90;;;6.90;;
71176;SDS011;58877;51.992;4.504;2023-04-06T14:23:20;7.00;;;7.00;;
71176;SDS011;58877;51.992;4.504;2023-04-06T14:25:46;6.65;;;6.59;;
71176;SDS011;58877;51.992;4.504;2023-04-06T14:28:12;6.47;;;6.33;;
71176;SDS011;58877;51.992;4.504;2023-04-06T14:30:37;6.41;;;6.37;;
71176;SDS011;58877;51.992;4.504;2023-04-06T14:33:03;5.95;;;5.94;;
71176;SDS011;58877;51.992;4.504;2023-04-06T14:35:29;5.86;;;5.86;;
71176;SDS011;58877;51.992;4.504;2023-04-06T14:37:57;6.31;;;6.31;;
71176;SDS011;58877;51.992;4.504;2023-04-06T14:40:23;6.51;;;6.51;;